createdAt,value
2019-02-03T00:01:41.159Z,193.82
2019-02-03T00:04:07.441Z,198.40
2019-02-03T00:06:33.621Z,230.30
2019-02-03T00:08:59.871Z,181.95
2019-02-03T00:11:25.958Z,115.42
2019-02-03T00:13:52.132Z,171.15
2019-02-03T00:16:18.216Z,78.95
2019-02-03T00:18:45.030Z,209.18
2019-02-03T00:21:11.361Z,145.90
2019-02-03T00:23:37.584Z,113.08
2019-02-03T00:26:04.773Z,154.38
2019-02-03T00:28:30.956Z,140.37
2019-02-03T00:30:57.136Z,171.43
2019-02-03T00:33:23.444Z,116.50
2019-02-03T00:35:49.508Z,134.47
2019-02-03T00:38:23.231Z,130.72
2019-02-03T00:40:44.511Z,163.12
2019-02-03T00:43:10.699Z,157.22
2019-02-03T00:45:36.776Z,185.00
2019-02-03T00:48:03.344Z,110.85
2019-02-03T00:50:29.523Z,112.57
2019-02-03T00:52:55.587Z,130.70
2019-02-03T00:55:21.770Z,209.77
2019-02-03T00:57:47.949Z,146.57
2019-02-03T01:00:15.807Z,108.52
2019-02-03T01:02:42.095Z,163.55
2019-02-03T01:05:11.776Z,76.10
2019-02-03T01:07:52.404Z,111.35
2019-02-03T01:10:20.891Z,91.65
2019-02-03T01:12:47.155Z,88.82
2019-02-03T01:15:13.645Z,87.22
2019-02-03T01:17:39.711Z,64.22
2019-02-03T01:20:15.003Z,108.22
2019-02-03T01:22:41.069Z,55.50
2019-02-03T01:25:10.255Z,73.75
2019-02-03T01:27:36.635Z,47.30
2019-02-03T01:30:06.120Z,61.98
2019-02-03T01:32:32.190Z,59.42
2019-02-03T01:34:58.384Z,56.40
2019-02-03T01:37:24.454Z,121.00
2019-02-03T01:39:50.639Z,53.15
2019-02-03T01:42:16.807Z,99.15
2019-02-03T01:44:43.107Z,50.63
2019-02-03T01:47:09.271Z,32.23
2019-02-03T01:49:35.393Z,58.45
2019-02-03T01:52:01.555Z,40.05
2019-02-03T01:54:27.644Z,38.05
2019-02-03T01:56:53.809Z,35.88
2019-02-03T01:59:19.991Z,35.80
2019-02-03T02:01:46.464Z,38.40
2019-02-03T02:04:12.639Z,43.35
2019-02-03T02:06:38.718Z,34.75
2019-02-03T02:09:06.111Z,42.83
2019-02-03T02:11:32.187Z,32.55
2019-02-03T02:13:58.283Z,43.78
2019-02-03T02:16:24.452Z,41.18
2019-02-03T02:18:50.521Z,49.55
2019-02-03T02:21:16.691Z,31.93
2019-02-03T02:23:42.762Z,35.23
2019-02-03T02:26:08.853Z,46.15
2019-02-03T02:28:35.095Z,40.80
2019-02-03T02:31:01.188Z,41.90
2019-02-03T02:33:27.363Z,34.13
2019-02-03T02:35:53.536Z,38.23
2019-02-03T02:38:20.000Z,35.75
2019-02-03T02:40:46.075Z,36.00
2019-02-03T02:43:12.234Z,37.53
2019-02-03T02:45:38.312Z,27.60
2019-02-03T02:48:04.702Z,41.75
2019-02-03T02:50:36.889Z,34.53
2019-02-03T02:53:03.342Z,36.93
2019-02-03T02:55:29.946Z,38.23
2019-02-03T02:57:56.212Z,36.88
2019-02-03T03:00:24.002Z,30.80
2019-02-03T03:02:50.362Z,35.52
2019-02-03T03:05:16.745Z,30.02
2019-02-03T03:07:43.024Z,34.50
2019-02-03T03:10:29.014Z,35.28
2019-02-03T03:12:55.185Z,30.05
2019-02-03T03:15:21.368Z,36.20
2019-02-03T03:17:47.947Z,31.50
2019-02-03T03:20:16.138Z,31.62
2019-02-03T03:22:42.323Z,34.55
2019-02-03T03:25:12.026Z,34.15
2019-02-03T03:27:38.192Z,34.67
2019-02-03T03:30:13.835Z,39.38
2019-02-03T03:32:39.990Z,33.45
2019-02-03T03:35:06.269Z,32.90
2019-02-03T03:37:52.232Z,40.17
2019-02-03T03:40:20.540Z,39.23
2019-02-03T03:42:46.707Z,33.30
2019-02-03T03:45:13.069Z,31.07
2019-02-03T03:47:39.249Z,31.12
2019-02-03T03:50:08.518Z,30.37
2019-02-03T03:52:34.887Z,36.60
2019-02-03T03:55:01.125Z,34.70
2019-02-03T03:57:27.320Z,33.13
2019-02-03T03:59:53.481Z,42.67
2019-02-03T04:02:19.587Z,33.42
2019-02-03T04:04:45.759Z,34.60
2019-02-03T04:07:11.954Z,40.00
2019-02-03T04:09:38.444Z,35.83
2019-02-03T04:12:04.692Z,38.50
2019-02-03T04:14:30.847Z,40.50
2019-02-03T04:16:56.912Z,37.35
2019-02-03T04:19:23.003Z,36.88
2019-02-03T04:21:49.169Z,39.80
2019-02-03T04:24:15.263Z,39.90
2019-02-03T04:26:41.331Z,41.20
2019-02-03T04:29:07.420Z,34.00
2019-02-03T04:31:33.610Z,31.70
2019-02-03T04:34:00.965Z,34.13
2019-02-03T04:36:27.064Z,33.38
2019-02-03T04:38:58.467Z,33.55
2019-02-03T04:41:21.240Z,33.78
2019-02-03T04:43:47.407Z,30.37
2019-02-03T04:46:13.569Z,35.52
2019-02-03T04:48:39.618Z,38.48
2019-02-03T04:51:05.697Z,43.90
2019-02-03T04:53:31.875Z,37.45
2019-02-03T04:55:58.047Z,21.93
2019-02-03T04:58:24.148Z,36.70
2019-02-03T05:00:50.358Z,41.00
2019-02-03T05:03:16.840Z,32.53
2019-02-03T05:05:42.927Z,38.20
2019-02-03T05:08:09.000Z,37.33
2019-02-03T05:10:35.069Z,36.48
2019-02-03T05:13:01.138Z,34.43
2019-02-03T05:15:27.210Z,30.52
2019-02-03T05:17:53.406Z,34.60
2019-02-03T05:20:24.195Z,38.98
2019-02-03T05:22:50.275Z,34.48
2019-02-03T05:25:16.578Z,35.68
2019-02-03T05:27:42.851Z,29.27
2019-02-03T05:30:14.619Z,30.62
2019-02-03T05:32:41.609Z,30.25
2019-02-03T05:35:07.761Z,27.65
2019-02-03T05:37:34.152Z,23.20
2019-02-03T05:40:00.362Z,28.30
2019-02-03T05:42:26.492Z,30.80
2019-02-03T05:44:52.569Z,23.20
2019-02-03T05:47:18.743Z,32.35
2019-02-03T05:49:44.820Z,27.77
2019-02-03T05:52:10.907Z,23.42
2019-02-03T05:54:37.082Z,24.07
2019-02-03T05:57:03.356Z,27.13
2019-02-03T05:59:29.551Z,22.75
2019-02-03T06:01:55.632Z,22.67
2019-02-03T06:04:21.819Z,19.95
2019-02-03T06:06:47.999Z,24.95
2019-02-03T06:09:14.121Z,23.52
2019-02-03T06:11:40.314Z,22.58
2019-02-03T06:14:06.808Z,23.90
2019-02-03T06:16:32.876Z,21.30
2019-02-03T06:18:59.061Z,27.32
2019-02-03T06:21:25.228Z,25.50
2019-02-03T06:23:51.707Z,22.05
2019-02-03T06:26:17.784Z,17.55
2019-02-03T06:28:43.981Z,22.65
2019-02-03T06:31:13.972Z,22.10
2019-02-03T06:33:38.712Z,22.87
2019-02-03T06:36:04.995Z,20.57
2019-02-03T06:38:31.200Z,19.30
2019-02-03T06:40:57.387Z,14.70
2019-02-03T06:43:23.457Z,19.07
2019-02-03T06:45:51.539Z,17.20
2019-02-03T06:48:19.904Z,15.78
2019-02-03T06:50:46.100Z,17.62
2019-02-03T06:53:12.162Z,22.02
2019-02-03T06:55:38.264Z,20.90
2019-02-03T06:58:04.426Z,21.42
2019-02-03T07:00:30.595Z,21.48
2019-02-03T07:02:56.659Z,15.70
2019-02-03T07:05:22.793Z,16.40
2019-02-03T07:07:48.931Z,15.45
2019-02-03T07:10:15.143Z,16.17
2019-02-03T07:12:41.210Z,22.67
2019-02-03T07:15:08.995Z,14.10
2019-02-03T07:17:35.156Z,15.88
2019-02-03T07:20:01.420Z,16.00
2019-02-03T07:22:27.609Z,15.55
2019-02-03T07:24:53.972Z,19.57
2019-02-03T07:27:20.056Z,12.82
2019-02-03T07:29:46.239Z,16.07
2019-02-03T07:32:12.328Z,15.55
2019-02-03T07:34:38.487Z,14.43
2019-02-03T07:37:04.644Z,14.23
2019-02-03T07:39:30.728Z,16.12
2019-02-03T07:41:58.207Z,17.07
2019-02-03T07:44:24.269Z,19.75
2019-02-03T07:46:50.452Z,17.15
2019-02-03T07:49:16.528Z,16.55
2019-02-03T07:51:42.731Z,17.10
2019-02-03T07:54:09.012Z,10.65
2019-02-03T07:56:35.172Z,17.05
2019-02-03T07:59:01.540Z,17.27
2019-02-03T08:01:27.799Z,16.15
2019-02-03T08:03:54.096Z,17.27
2019-02-03T08:06:20.383Z,13.90
2019-02-03T08:08:46.859Z,12.60
2019-02-03T08:11:13.031Z,14.80
2019-02-03T08:13:39.231Z,15.28
2019-02-03T08:16:05.399Z,17.80
2019-02-03T08:18:31.574Z,12.73
2019-02-03T08:20:57.748Z,13.88
2019-02-03T08:23:24.016Z,14.05
2019-02-03T08:25:50.094Z,14.43
2019-02-03T08:28:16.273Z,12.90
2019-02-03T08:30:42.459Z,13.35
2019-02-03T08:33:08.661Z,7.87
2019-02-03T08:35:34.827Z,14.53
2019-02-03T08:38:01.436Z,11.97
2019-02-03T08:40:36.800Z,13.43
2019-02-03T08:42:56.132Z,14.55
2019-02-03T08:45:23.433Z,17.27
2019-02-03T08:47:50.236Z,12.60
2019-02-03T08:50:18.899Z,14.68
2019-02-03T08:52:45.087Z,11.10
2019-02-03T08:55:11.806Z,10.78
2019-02-03T08:57:37.897Z,14.00
2019-02-03T09:00:10.706Z,14.18
2019-02-03T09:02:36.811Z,11.97
2019-02-03T09:05:04.997Z,11.03
2019-02-03T09:07:31.091Z,12.50
2019-02-03T09:09:57.203Z,13.65
2019-02-03T09:12:23.404Z,10.90
2019-02-03T09:14:49.575Z,9.53
2019-02-03T09:17:15.754Z,11.78
2019-02-03T09:19:41.822Z,11.35
2019-02-03T09:22:08.271Z,8.58
2019-02-03T09:24:34.488Z,13.22
2019-02-03T09:27:00.681Z,9.23
2019-02-03T09:29:27.051Z,9.70
2019-02-03T09:31:53.144Z,9.00
2019-02-03T09:34:19.223Z,12.20
2019-02-03T09:36:45.291Z,9.90
2019-02-03T09:39:11.578Z,14.95
2019-02-03T09:41:37.658Z,11.22
2019-02-03T09:44:04.051Z,11.63
2019-02-03T09:46:30.124Z,10.05
2019-02-03T09:48:56.408Z,8.93
2019-02-03T09:51:22.474Z,8.80
2019-02-03T09:53:48.556Z,9.58
2019-02-03T09:56:14.915Z,9.08
2019-02-03T09:58:41.060Z,9.48
2019-02-03T10:01:07.239Z,8.30
2019-02-03T10:03:33.411Z,11.05
2019-02-03T10:05:59.470Z,7.45
2019-02-03T10:08:25.550Z,8.93
2019-02-03T10:10:51.823Z,6.97
2019-02-03T10:13:17.973Z,7.87
2019-02-03T10:15:44.173Z,9.18
2019-02-03T10:18:10.550Z,7.92
2019-02-03T10:20:36.725Z,7.45
2019-02-03T10:23:03.527Z,7.70
2019-02-03T10:25:29.990Z,9.10
2019-02-03T10:27:56.197Z,6.72
2019-02-03T10:30:23.265Z,7.78
2019-02-03T10:32:49.743Z,9.05
2019-02-03T10:35:23.455Z,11.88
2019-02-03T10:37:46.887Z,9.03
2019-02-03T10:40:16.285Z,6.87
2019-02-03T10:42:42.576Z,10.05
2019-02-03T10:45:14.317Z,6.45
2019-02-03T10:47:40.796Z,10.08
2019-02-03T10:50:10.702Z,11.25
2019-02-03T10:52:36.879Z,11.55
2019-02-03T10:55:06.352Z,9.43
2019-02-03T10:57:32.835Z,9.30
2019-02-03T10:59:58.999Z,8.80
2019-02-03T11:02:25.163Z,7.05
2019-02-03T11:04:51.360Z,9.23
2019-02-03T11:07:17.531Z,6.25
2019-02-03T11:09:43.618Z,5.97
2019-02-03T11:12:09.796Z,7.92
2019-02-03T11:14:35.984Z,7.58
2019-02-03T11:17:02.549Z,7.05
2019-02-03T11:19:28.723Z,6.12
2019-02-03T11:21:54.905Z,7.12
2019-02-03T11:24:21.062Z,9.50
2019-02-03T11:26:47.207Z,7.35
2019-02-03T11:29:13.391Z,8.15
2019-02-03T11:31:39.567Z,8.15
2019-02-03T11:34:05.831Z,8.40
2019-02-03T11:36:32.023Z,8.30
2019-02-03T11:38:58.489Z,8.78
2019-02-03T11:41:24.799Z,8.75
2019-02-03T11:43:51.000Z,7.00
2019-02-03T11:46:17.259Z,6.95
2019-02-03T11:48:43.513Z,5.80
2019-02-03T11:51:09.796Z,6.70
2019-02-03T11:53:35.989Z,11.38
2019-02-03T11:56:02.284Z,9.15
2019-02-03T11:58:28.974Z,12.98
2019-02-03T12:00:55.287Z,12.20
2019-02-03T12:03:21.568Z,9.88
2019-02-03T12:05:48.046Z,9.30
2019-02-03T12:08:14.160Z,9.60
2019-02-03T12:10:40.350Z,7.33
2019-02-03T12:13:09.268Z,8.58
2019-02-03T12:15:35.743Z,11.20
2019-02-03T12:18:01.936Z,14.20
2019-02-03T12:20:28.115Z,10.80
2019-02-03T12:22:54.392Z,11.60
2019-02-03T12:25:26.639Z,13.20
2019-02-03T12:27:52.806Z,15.95
2019-02-03T12:30:25.207Z,19.95
2019-02-03T12:32:51.497Z,20.10
2019-02-03T12:35:19.554Z,14.00
2019-02-03T12:37:46.085Z,11.00
2019-02-03T12:40:18.043Z,17.07
2019-02-03T12:42:44.328Z,17.12
2019-02-03T12:45:13.999Z,13.83
2019-02-03T12:47:40.292Z,16.85
2019-02-03T12:50:12.582Z,15.28
2019-02-03T12:52:38.659Z,17.00
2019-02-03T12:55:10.330Z,14.03
2019-02-03T12:57:36.433Z,12.35
2019-02-03T13:00:12.579Z,17.12
2019-02-03T13:02:38.759Z,23.35
2019-02-03T13:05:07.845Z,29.82
2019-02-03T13:07:34.027Z,23.18
2019-02-03T13:10:00.207Z,20.60
2019-02-03T13:12:27.723Z,22.27
2019-02-03T13:14:54.291Z,21.35
2019-02-03T13:17:20.463Z,23.15
2019-02-03T13:19:46.559Z,17.67
2019-02-03T13:22:12.663Z,27.37
2019-02-03T13:24:38.759Z,20.95
2019-02-03T13:27:04.925Z,25.25
2019-02-03T13:29:31.101Z,33.05
2019-02-03T13:31:57.715Z,22.27
2019-02-03T13:34:23.861Z,22.20
2019-02-03T13:36:50.027Z,19.98
2019-02-03T13:39:16.150Z,24.02
2019-02-03T13:41:42.339Z,35.03
2019-02-03T13:44:08.471Z,13.93
2019-02-03T13:46:34.672Z,27.98
2019-02-03T13:49:01.153Z,21.65
2019-02-03T13:51:27.320Z,26.00
2019-02-03T13:53:53.420Z,20.27
2019-02-03T13:56:19.642Z,16.77
2019-02-03T13:58:45.830Z,20.37
2019-02-03T14:01:11.968Z,18.10
2019-02-03T14:03:38.160Z,21.12
2019-02-03T14:06:04.674Z,22.55
2019-02-03T14:08:30.886Z,22.85
2019-02-03T14:10:57.042Z,28.60
2019-02-03T14:13:23.128Z,21.65
2019-02-03T14:15:49.246Z,21.55
2019-02-03T14:18:15.340Z,22.75
2019-02-03T14:20:41.408Z,17.55
2019-02-03T14:23:07.543Z,18.48
2019-02-03T14:25:33.836Z,19.95
2019-02-03T14:27:59.939Z,20.82
2019-02-03T14:30:40.489Z,22.00
2019-02-03T14:33:03.719Z,21.05
2019-02-03T14:35:32.773Z,12.55
2019-02-03T14:37:58.099Z,16.40
2019-02-03T14:40:24.623Z,22.35
2019-02-03T14:43:01.325Z,17.42
2019-02-03T14:45:26.428Z,19.73
2019-02-03T14:47:52.728Z,23.30
2019-02-03T14:50:20.951Z,21.62
2019-02-03T14:52:47.539Z,19.60
2019-02-03T14:55:29.318Z,18.98
2019-02-03T14:57:55.564Z,24.35
2019-02-03T15:00:30.292Z,22.15
2019-02-03T15:02:57.243Z,20.00
2019-02-03T15:05:23.624Z,19.32
2019-02-03T15:07:49.824Z,23.12
2019-02-03T15:10:16.206Z,20.90
2019-02-03T15:12:42.349Z,16.90
2019-02-03T15:15:12.133Z,23.35
2019-02-03T15:17:38.195Z,20.43
2019-02-03T15:20:08.087Z,24.92
2019-02-03T15:22:34.177Z,14.13
2019-02-03T15:25:00.292Z,16.37
2019-02-03T15:27:26.363Z,17.52
2019-02-03T15:29:52.444Z,19.57
2019-02-03T15:32:18.540Z,22.07
2019-02-03T15:34:44.704Z,21.70
2019-02-03T15:37:10.766Z,29.98
2019-02-03T15:39:36.839Z,21.60
2019-02-03T15:42:03.431Z,33.80
2019-02-03T15:44:29.682Z,21.93
2019-02-03T15:46:55.849Z,18.67
2019-02-03T15:49:21.972Z,14.05
2019-02-03T15:51:48.167Z,18.77
2019-02-03T15:54:14.259Z,16.27
2019-02-03T15:56:43.936Z,18.55
2019-02-03T15:59:10.107Z,11.57
2019-02-03T16:01:36.420Z,19.32
2019-02-03T16:04:02.887Z,16.55
2019-02-03T16:06:28.979Z,18.23
2019-02-03T16:08:55.159Z,19.67
2019-02-03T16:11:21.332Z,16.48
2019-02-03T16:13:47.757Z,22.62
2019-02-03T16:16:13.935Z,14.83
2019-02-03T16:18:40.116Z,22.80
2019-02-03T16:21:06.200Z,15.43
2019-02-03T16:23:32.359Z,18.30
2019-02-03T16:25:58.436Z,21.70
2019-02-03T16:28:24.631Z,15.28
2019-02-03T16:30:50.725Z,29.72
2019-02-03T16:33:16.884Z,19.15
2019-02-03T16:35:43.097Z,19.10
2019-02-03T16:38:22.073Z,20.05
2019-02-03T16:40:38.239Z,29.92
2019-02-03T16:43:04.571Z,30.45
2019-02-03T16:45:31.372Z,20.90
2019-02-03T16:47:59.455Z,28.67
2019-02-03T16:50:30.444Z,19.15
2019-02-03T16:52:58.017Z,24.35
2019-02-03T16:55:25.187Z,15.45
2019-02-03T16:57:51.460Z,11.68
2019-02-03T17:00:19.903Z,14.85
2019-02-03T17:02:46.191Z,15.88
2019-02-03T17:05:25.378Z,11.00
2019-02-03T17:07:43.288Z,20.02
2019-02-03T17:10:12.405Z,21.90
2019-02-03T17:12:38.562Z,11.88
2019-02-03T17:15:08.529Z,14.53
2019-02-03T17:17:34.723Z,21.57
2019-02-03T17:20:00.899Z,21.25
2019-02-03T17:22:27.278Z,18.48
2019-02-03T17:24:53.440Z,22.42
2019-02-03T17:27:19.529Z,12.33
2019-02-03T17:29:45.690Z,18.32
2019-02-03T17:32:11.762Z,20.75
2019-02-03T17:34:37.841Z,19.65
2019-02-03T17:37:04.019Z,13.55
2019-02-03T17:39:30.115Z,16.90
2019-02-03T17:41:56.487Z,20.45
2019-02-03T17:44:22.773Z,19.57
2019-02-03T17:46:48.930Z,20.08
2019-02-03T17:49:16.763Z,14.05
2019-02-03T17:51:42.995Z,15.08
2019-02-03T17:54:09.178Z,10.98
2019-02-03T17:56:35.334Z,16.52
2019-02-03T17:59:01.833Z,23.85
2019-02-03T18:01:27.978Z,15.38
2019-02-03T18:03:54.048Z,23.87
2019-02-03T18:06:20.127Z,20.80
2019-02-03T18:08:46.219Z,16.17
2019-02-03T18:11:12.324Z,13.80
2019-02-03T18:13:38.506Z,12.88
2019-02-03T18:16:04.691Z,13.00
2019-02-03T18:18:31.056Z,16.10
2019-02-03T18:20:57.244Z,18.27
2019-02-03T18:23:23.339Z,16.73
2019-02-03T18:25:49.720Z,22.37
2019-02-03T18:28:16.598Z,18.02
2019-02-03T18:30:42.786Z,17.57
2019-02-03T18:33:08.848Z,15.35
2019-02-03T18:35:35.072Z,23.20
2019-02-03T18:38:07.087Z,25.20
2019-02-03T18:40:33.273Z,15.90
2019-02-03T18:43:01.975Z,15.03
2019-02-03T18:45:27.359Z,8.23
2019-02-03T18:47:53.522Z,10.80
2019-02-03T18:50:23.166Z,13.75
2019-02-03T18:52:49.747Z,14.35
2019-02-03T18:55:18.711Z,21.52
2019-02-03T18:57:44.803Z,12.80
2019-02-03T19:00:20.056Z,19.70
2019-02-03T19:02:46.252Z,14.47
2019-02-03T19:05:15.718Z,28.23
2019-02-03T19:07:42.102Z,17.52
2019-02-03T19:10:14.330Z,14.28
2019-02-03T19:12:40.500Z,13.75
2019-02-03T19:15:08.783Z,19.77
2019-02-03T19:17:34.867Z,13.08
2019-02-03T19:20:00.945Z,22.27
2019-02-03T19:22:27.007Z,35.10
2019-02-03T19:24:53.220Z,16.30
2019-02-03T19:27:19.363Z,20.15
2019-02-03T19:29:45.432Z,21.73
2019-02-03T19:32:11.611Z,21.05
2019-02-03T19:34:37.675Z,16.37
2019-02-03T19:37:05.670Z,19.50
2019-02-03T19:39:31.935Z,21.95
2019-02-03T19:41:58.248Z,17.48
2019-02-03T19:44:24.380Z,16.48
2019-02-03T19:46:50.591Z,16.67
2019-02-03T19:49:16.735Z,13.83
2019-02-03T19:51:42.867Z,19.52
2019-02-03T19:54:09.056Z,20.62
2019-02-03T19:56:35.236Z,15.03
2019-02-03T19:59:01.328Z,16.67
2019-02-03T20:01:27.616Z,7.08
2019-02-03T20:03:53.707Z,21.95
2019-02-03T20:06:19.876Z,19.57
2019-02-03T20:08:45.977Z,26.77
2019-02-03T20:11:12.143Z,17.77
2019-02-03T20:13:38.276Z,17.50
2019-02-03T20:16:04.462Z,22.55
2019-02-03T20:18:31.059Z,26.10
2019-02-03T20:20:57.241Z,18.02
2019-02-03T20:23:23.321Z,17.52
2019-02-03T20:25:49.526Z,17.45
2019-02-03T20:28:15.738Z,21.15
2019-02-03T20:30:41.832Z,17.30
2019-02-03T20:33:08.078Z,21.70
2019-02-03T20:35:34.587Z,12.37
2019-02-03T20:38:01.041Z,23.95
2019-02-03T20:40:30.532Z,16.40
2019-02-03T20:42:56.801Z,22.67
2019-02-03T20:45:23.073Z,17.62
2019-02-03T20:47:49.271Z,16.42
2019-02-03T20:50:17.372Z,24.87
2019-02-03T20:52:43.626Z,16.32
2019-02-03T20:55:12.296Z,14.83
2019-02-03T20:57:38.392Z,18.02
2019-02-03T21:00:11.434Z,20.55
2019-02-03T21:02:37.626Z,19.67
2019-02-03T21:05:05.591Z,19.52
2019-02-03T21:07:31.677Z,18.65
2019-02-03T21:09:57.740Z,19.52
2019-02-03T21:12:24.237Z,21.82
2019-02-03T21:14:50.303Z,18.50
2019-02-03T21:17:16.407Z,14.33
2019-02-03T21:19:42.487Z,21.27
2019-02-03T21:22:08.643Z,23.52
2019-02-03T21:24:34.735Z,23.20
2019-02-03T21:27:00.821Z,16.93
2019-02-03T21:29:26.901Z,23.47
2019-02-03T21:31:53.244Z,15.50
2019-02-03T21:34:19.303Z,19.37
2019-02-03T21:36:45.379Z,22.52
2019-02-03T21:39:11.454Z,25.72
2019-02-03T21:41:37.639Z,22.32
2019-02-03T21:44:03.731Z,28.12
2019-02-03T21:46:29.909Z,22.20
2019-02-03T21:48:56.497Z,24.85
2019-02-03T21:51:22.656Z,17.57
2019-02-03T21:53:48.743Z,21.52
2019-02-03T21:56:14.803Z,18.12
2019-02-03T21:58:40.975Z,19.90
2019-02-03T22:01:07.054Z,19.48
2019-02-03T22:03:33.120Z,16.10
2019-02-03T22:05:59.185Z,21.02
2019-02-03T22:08:25.672Z,17.98
2019-02-03T22:10:51.850Z,25.35
2019-02-03T22:13:18.139Z,16.90
2019-02-03T22:15:55.048Z,18.95
2019-02-03T22:18:12.189Z,27.58
2019-02-03T22:20:38.371Z,18.17
2019-02-03T22:23:04.430Z,20.70
2019-02-03T22:25:30.924Z,19.70
2019-02-03T22:27:57.092Z,24.77
2019-02-03T22:30:29.420Z,19.05
2019-02-03T22:32:55.587Z,18.90
2019-02-03T22:35:21.807Z,25.17
2019-02-03T22:37:48.140Z,25.37
2019-02-03T22:40:19.402Z,21.17
2019-02-03T22:42:45.465Z,19.27
2019-02-03T22:45:19.899Z,18.07
2019-02-03T22:47:46.292Z,22.55
2019-02-03T22:50:18.607Z,24.90
2019-02-03T22:52:44.687Z,20.80
2019-02-03T22:55:12.351Z,22.30
2019-02-03T22:57:38.439Z,22.35
2019-02-03T23:00:52.717Z,25.45
2019-02-03T23:03:24.516Z,19.35
2019-02-03T23:05:52.206Z,18.40
2019-02-03T23:08:18.386Z,18.27
2019-02-03T23:10:44.583Z,22.07
2019-02-03T23:13:10.775Z,24.35
2019-02-03T23:15:37.430Z,17.73
2019-02-03T23:18:04.128Z,18.57
2019-02-03T23:20:30.383Z,26.75
2019-02-03T23:22:56.481Z,18.40
2019-02-03T23:25:22.560Z,15.28
2019-02-03T23:27:48.640Z,19.67
2019-02-03T23:30:15.833Z,22.58
2019-02-03T23:32:42.111Z,19.90
2019-02-03T23:35:08.303Z,28.30
2019-02-03T23:37:34.477Z,17.15
2019-02-03T23:40:00.543Z,24.35
2019-02-03T23:42:26.634Z,24.18
2019-02-03T23:44:52.802Z,35.98
2019-02-03T23:47:18.885Z,22.15
2019-02-03T23:49:44.943Z,24.35
2019-02-03T23:52:11.123Z,14.13
2019-02-03T23:54:37.300Z,23.18
2019-02-03T23:57:03.696Z,28.85
2019-02-03T23:59:29.872Z,18.62
